sensor_id;sensor_type;location;lat;lon;timestamp;P1;durP1;ratioP1;P2;durP2;ratioP2
49722;SDS011;43484;43.608;1.458;2023-07-16T00:00:20;9.52;;;2.78;;
49722;SDS011;43484;43.608;1.458;2023-07-16T00:02:47;8.07;;;2.63;;
49722;SDS011;43484;43.608;1.458;2023-07-16T00:05:14;7.28;;;2.42;;
49722;SDS011;43484;43.608;1.458;2023-07-16T00:07:41;14.15;;;2.95;;
49722;SDS011;43484;43.608;1.458;2023-07-16T00:10:08;9.73;;;2.60;;
49722;SDS011;43484;43.608;1.458;2023-07-16T00:12:36;13.05;;;2.42;;
49722;SDS011;43484;43.608;1.458;2023-07-16T00:15:04;7.57;;;2.42;;
49722;SDS011;43484;43.608;1.458;2023-07-16T00:17:33;13.55;;;2.67;;
49722;SDS011;43484;43.608;1.458;2023-07-16T00:20:00;13.20;;;2.60;;
49722;SDS011;43484;43.608;1.458;2023-07-16T00:22:27;8.43;;;2.10;;
49722;SDS011;43484;43.608;1.458;2023-07-16T00:24:54;7.20;;;1.70;;
49722;SDS011;43484;43.608;1.458;2023-07-16T00:27:20;10.95;;;2.42;;
49722;SDS011;43484;43.608;1.458;2023-07-16T00:29:47;8.27;;;2.42;;
49722;SDS011;43484;43.608;1.458;2023-07-16T00:32:13;12.10;;;2.42;;
49722;SDS011;43484;43.608;1.458;2023-07-16T00:34:40;9.50;;;2.05;;
49722;SDS011;43484;43.608;1.458;2023-07-16T00:37:07;15.73;;;2.50;;
49722;SDS011;43484;43.608;1.458;2023-07-16T00:39:34;11.65;;;2.33;;
49722;SDS011;43484;43.608;1.458;2023-07-16T00:42:00;10.73;;;2.10;;
49722;SDS011;43484;43.608;1.458;2023-07-16T00:44:27;10.85;;;2.25;;
49722;SDS011;43484;43.608;1.458;2023-07-16T00:46:53;8.05;;;2.47;;
49722;SDS011;43484;43.608;1.458;2023-07-16T00:49:20;9.70;;;2.28;;
49722;SDS011;43484;43.608;1.458;2023-07-16T00:51:47;8.85;;;2.67;;
49722;SDS011;43484;43.608;1.458;2023-07-16T00:54:13;12.40;;;2.58;;
49722;SDS011;43484;43.608;1.458;2023-07-16T00:56:40;15.95;;;2.22;;
49722;SDS011;43484;43.608;1.458;2023-07-16T00:59:07;11.05;;;2.35;;
49722;SDS011;43484;43.608;1.458;2023-07-16T01:01:35;15.57;;;3.55;;
49722;SDS011;43484;43.608;1.458;2023-07-16T01:04:02;11.40;;;2.45;;
49722;SDS011;43484;43.608;1.458;2023-07-16T01:06:33;12.63;;;2.53;;
49722;SDS011;43484;43.608;1.458;2023-07-16T01:11:35;7.85;;;2.35;;
49722;SDS011;43484;43.608;1.458;2023-07-16T01:14:04;12.93;;;2.53;;
49722;SDS011;43484;43.608;1.458;2023-07-16T01:16:33;14.32;;;3.10;;
49722;SDS011;43484;43.608;1.458;2023-07-16T01:18:59;10.82;;;2.53;;
49722;SDS011;43484;43.608;1.458;2023-07-16T01:21:28;18.15;;;3.17;;
49722;SDS011;43484;43.608;1.458;2023-07-16T01:29:47;11.43;;;2.58;;
49722;SDS011;43484;43.608;1.458;2023-07-16T01:32:17;14.00;;;3.20;;
49722;SDS011;43484;43.608;1.458;2023-07-16T01:34:44;10.77;;;2.08;;
49722;SDS011;43484;43.608;1.458;2023-07-16T01:37:11;14.43;;;2.63;;
49722;SDS011;43484;43.608;1.458;2023-07-16T01:39:38;11.35;;;2.70;;
49722;SDS011;43484;43.608;1.458;2023-07-16T01:42:06;13.00;;;3.03;;
49722;SDS011;43484;43.608;1.458;2023-07-16T01:44:32;15.50;;;2.70;;
49722;SDS011;43484;43.608;1.458;2023-07-16T01:47:13;10.20;;;2.60;;
49722;SDS011;43484;43.608;1.458;2023-07-16T01:49:48;13.35;;;3.03;;
49722;SDS011;43484;43.608;1.458;2023-07-16T01:52:15;16.27;;;2.97;;
49722;SDS011;43484;43.608;1.458;2023-07-16T01:54:41;15.60;;;2.80;;
49722;SDS011;43484;43.608;1.458;2023-07-16T01:57:08;13.23;;;2.85;;
49722;SDS011;43484;43.608;1.458;2023-07-16T01:59:35;11.38;;;2.45;;
49722;SDS011;43484;43.608;1.458;2023-07-16T02:02:02;9.77;;;2.42;;
49722;SDS011;43484;43.608;1.458;2023-07-16T02:04:29;13.98;;;2.35;;
49722;SDS011;43484;43.608;1.458;2023-07-16T02:06:55;16.27;;;2.53;;
49722;SDS011;43484;43.608;1.458;2023-07-16T02:09:22;13.00;;;2.53;;
49722;SDS011;43484;43.608;1.458;2023-07-16T02:11:49;13.25;;;2.63;;
49722;SDS011;43484;43.608;1.458;2023-07-16T02:14:15;12.85;;;2.67;;
49722;SDS011;43484;43.608;1.458;2023-07-16T02:16:42;9.80;;;2.30;;
49722;SDS011;43484;43.608;1.458;2023-07-16T02:19:09;15.38;;;2.67;;
49722;SDS011;43484;43.608;1.458;2023-07-16T02:21:36;12.38;;;2.22;;
49722;SDS011;43484;43.608;1.458;2023-07-16T02:24:03;11.68;;;2.35;;
49722;SDS011;43484;43.608;1.458;2023-07-16T02:26:29;12.82;;;2.50;;
49722;SDS011;43484;43.608;1.458;2023-07-16T02:28:56;9.45;;;2.47;;
49722;SDS011;43484;43.608;1.458;2023-07-16T02:31:24;7.38;;;1.90;;
49722;SDS011;43484;43.608;1.458;2023-07-16T02:33:50;14.65;;;2.70;;
49722;SDS011;43484;43.608;1.458;2023-07-16T02:36:17;11.68;;;2.30;;
49722;SDS011;43484;43.608;1.458;2023-07-16T02:38:44;14.43;;;1.83;;
49722;SDS011;43484;43.608;1.458;2023-07-16T02:41:11;15.40;;;2.40;;
49722;SDS011;43484;43.608;1.458;2023-07-16T02:43:37;9.18;;;2.00;;
49722;SDS011;43484;43.608;1.458;2023-07-16T02:46:04;14.57;;;2.38;;
49722;SDS011;43484;43.608;1.458;2023-07-16T02:48:31;12.77;;;2.40;;
49722;SDS011;43484;43.608;1.458;2023-07-16T02:50:57;8.18;;;2.22;;
49722;SDS011;43484;43.608;1.458;2023-07-16T02:53:24;8.20;;;2.33;;
49722;SDS011;43484;43.608;1.458;2023-07-16T02:55:50;7.80;;;2.15;;
49722;SDS011;43484;43.608;1.458;2023-07-16T02:58:17;9.32;;;2.78;;
49722;SDS011;43484;43.608;1.458;2023-07-16T03:00:44;11.43;;;2.13;;
49722;SDS011;43484;43.608;1.458;2023-07-16T03:03:11;10.93;;;2.10;;
49722;SDS011;43484;43.608;1.458;2023-07-16T03:05:38;8.43;;;2.13;;
49722;SDS011;43484;43.608;1.458;2023-07-16T03:08:04;9.57;;;2.22;;
49722;SDS011;43484;43.608;1.458;2023-07-16T03:10:31;14.00;;;2.83;;
49722;SDS011;43484;43.608;1.458;2023-07-16T03:12:58;12.85;;;2.13;;
49722;SDS011;43484;43.608;1.458;2023-07-16T03:15:24;10.55;;;2.08;;
49722;SDS011;43484;43.608;1.458;2023-07-16T03:17:51;11.63;;;1.83;;
49722;SDS011;43484;43.608;1.458;2023-07-16T03:20:18;12.70;;;2.05;;
49722;SDS011;43484;43.608;1.458;2023-07-16T03:22:44;8.40;;;2.40;;
49722;SDS011;43484;43.608;1.458;2023-07-16T03:25:11;10.38;;;2.13;;
49722;SDS011;43484;43.608;1.458;2023-07-16T03:27:38;10.95;;;2.00;;
49722;SDS011;43484;43.608;1.458;2023-07-16T03:30:05;7.80;;;1.70;;
49722;SDS011;43484;43.608;1.458;2023-07-16T03:32:32;12.70;;;2.90;;
49722;SDS011;43484;43.608;1.458;2023-07-16T03:35:17;13.18;;;2.05;;
49722;SDS011;43484;43.608;1.458;2023-07-16T03:37:45;13.13;;;2.40;;
49722;SDS011;43484;43.608;1.458;2023-07-16T03:40:24;9.20;;;2.22;;
49722;SDS011;43484;43.608;1.458;2023-07-16T03:42:52;13.50;;;2.55;;
49722;SDS011;43484;43.608;1.458;2023-07-16T03:45:19;9.23;;;2.05;;
49722;SDS011;43484;43.608;1.458;2023-07-16T03:47:46;14.65;;;2.20;;
49722;SDS011;43484;43.608;1.458;2023-07-16T03:50:12;8.85;;;2.10;;
49722;SDS011;43484;43.608;1.458;2023-07-16T03:52:39;18.27;;;2.67;;
49722;SDS011;43484;43.608;1.458;2023-07-16T03:55:06;12.23;;;2.13;;
49722;SDS011;43484;43.608;1.458;2023-07-16T03:57:33;9.23;;;2.55;;
49722;SDS011;43484;43.608;1.458;2023-07-16T04:00:00;13.48;;;2.15;;
49722;SDS011;43484;43.608;1.458;2023-07-16T04:02:27;11.02;;;2.10;;
49722;SDS011;43484;43.608;1.458;2023-07-16T04:04:53;14.73;;;2.40;;
49722;SDS011;43484;43.608;1.458;2023-07-16T04:07:20;10.65;;;2.20;;
49722;SDS011;43484;43.608;1.458;2023-07-16T04:09:47;13.70;;;2.47;;
49722;SDS011;43484;43.608;1.458;2023-07-16T04:12:13;15.77;;;2.53;;
49722;SDS011;43484;43.608;1.458;2023-07-16T04:14:40;11.80;;;2.25;;
49722;SDS011;43484;43.608;1.458;2023-07-16T04:17:07;9.00;;;2.15;;
49722;SDS011;43484;43.608;1.458;2023-07-16T04:19:34;18.00;;;2.78;;
49722;SDS011;43484;43.608;1.458;2023-07-16T04:22:00;12.75;;;2.97;;
49722;SDS011;43484;43.608;1.458;2023-07-16T04:24:27;12.07;;;2.50;;
49722;SDS011;43484;43.608;1.458;2023-07-16T04:26:54;9.68;;;1.85;;
49722;SDS011;43484;43.608;1.458;2023-07-16T04:29:21;11.35;;;2.22;;
49722;SDS011;43484;43.608;1.458;2023-07-16T04:31:48;14.23;;;3.05;;
49722;SDS011;43484;43.608;1.458;2023-07-16T04:34:14;15.50;;;2.40;;
49722;SDS011;43484;43.608;1.458;2023-07-16T04:36:41;11.85;;;2.45;;
49722;SDS011;43484;43.608;1.458;2023-07-16T04:39:09;13.25;;;2.30;;
49722;SDS011;43484;43.608;1.458;2023-07-16T04:41:36;13.52;;;2.63;;
49722;SDS011;43484;43.608;1.458;2023-07-16T04:44:03;14.35;;;2.20;;
49722;SDS011;43484;43.608;1.458;2023-07-16T04:46:30;13.25;;;3.05;;
49722;SDS011;43484;43.608;1.458;2023-07-16T04:48:57;10.45;;;2.30;;
49722;SDS011;43484;43.608;1.458;2023-07-16T04:51:24;15.35;;;2.35;;
49722;SDS011;43484;43.608;1.458;2023-07-16T04:53:50;14.82;;;2.88;;
49722;SDS011;43484;43.608;1.458;2023-07-16T04:56:17;11.50;;;2.75;;
49722;SDS011;43484;43.608;1.458;2023-07-16T04:58:44;12.98;;;2.50;;
49722;SDS011;43484;43.608;1.458;2023-07-16T05:01:11;13.75;;;2.60;;
49722;SDS011;43484;43.608;1.458;2023-07-16T05:03:38;17.25;;;3.50;;
49722;SDS011;43484;43.608;1.458;2023-07-16T05:06:05;12.73;;;2.85;;
49722;SDS011;43484;43.608;1.458;2023-07-16T05:08:32;12.95;;;2.90;;
49722;SDS011;43484;43.608;1.458;2023-07-16T05:10:58;13.63;;;2.92;;
49722;SDS011;43484;43.608;1.458;2023-07-16T05:13:25;13.48;;;2.20;;
49722;SDS011;43484;43.608;1.458;2023-07-16T05:15:52;13.38;;;3.00;;
49722;SDS011;43484;43.608;1.458;2023-07-16T05:18:19;14.88;;;2.25;;
49722;SDS011;43484;43.608;1.458;2023-07-16T05:20:47;9.65;;;2.10;;
49722;SDS011;43484;43.608;1.458;2023-07-16T05:23:15;16.38;;;2.42;;
49722;SDS011;43484;43.608;1.458;2023-07-16T05:25:45;15.85;;;2.95;;
49722;SDS011;43484;43.608;1.458;2023-07-16T05:28:14;12.05;;;2.63;;
49722;SDS011;43484;43.608;1.458;2023-07-16T05:30:41;11.45;;;2.95;;
49722;SDS011;43484;43.608;1.458;2023-07-16T05:33:08;12.10;;;1.90;;
49722;SDS011;43484;43.608;1.458;2023-07-16T05:35:35;14.98;;;2.70;;
49722;SDS011;43484;43.608;1.458;2023-07-16T05:38:02;7.43;;;2.08;;
49722;SDS011;43484;43.608;1.458;2023-07-16T05:40:29;11.45;;;2.85;;
49722;SDS011;43484;43.608;1.458;2023-07-16T05:42:55;15.07;;;2.83;;
49722;SDS011;43484;43.608;1.458;2023-07-16T05:45:22;12.77;;;2.67;;
49722;SDS011;43484;43.608;1.458;2023-07-16T05:47:49;19.38;;;2.92;;
49722;SDS011;43484;43.608;1.458;2023-07-16T05:50:16;13.55;;;2.97;;
49722;SDS011;43484;43.608;1.458;2023-07-16T05:52:43;12.30;;;2.50;;
49722;SDS011;43484;43.608;1.458;2023-07-16T05:55:09;11.70;;;2.63;;
49722;SDS011;43484;43.608;1.458;2023-07-16T05:57:36;15.43;;;2.30;;
49722;SDS011;43484;43.608;1.458;2023-07-16T06:00:02;19.83;;;3.35;;
49722;SDS011;43484;43.608;1.458;2023-07-16T06:02:31;13.93;;;2.30;;
49722;SDS011;43484;43.608;1.458;2023-07-16T06:04:57;16.02;;;3.03;;
49722;SDS011;43484;43.608;1.458;2023-07-16T06:07:24;12.30;;;2.72;;
49722;SDS011;43484;43.608;1.458;2023-07-16T06:09:50;15.27;;;2.65;;
49722;SDS011;43484;43.608;1.458;2023-07-16T06:12:17;15.48;;;2.72;;
49722;SDS011;43484;43.608;1.458;2023-07-16T06:14:44;13.55;;;2.60;;
49722;SDS011;43484;43.608;1.458;2023-07-16T06:17:10;15.75;;;3.28;;
49722;SDS011;43484;43.608;1.458;2023-07-16T06:19:37;9.35;;;2.28;;
49722;SDS011;43484;43.608;1.458;2023-07-16T06:22:04;15.05;;;3.22;;
49722;SDS011;43484;43.608;1.458;2023-07-16T06:24:30;12.30;;;2.50;;
49722;SDS011;43484;43.608;1.458;2023-07-16T06:26:57;16.15;;;3.20;;
49722;SDS011;43484;43.608;1.458;2023-07-16T06:29:23;12.68;;;3.45;;
49722;SDS011;43484;43.608;1.458;2023-07-16T06:31:54;15.43;;;3.53;;
49722;SDS011;43484;43.608;1.458;2023-07-16T06:34:25;12.35;;;2.53;;
49722;SDS011;43484;43.608;1.458;2023-07-16T06:36:52;16.77;;;3.47;;
49722;SDS011;43484;43.608;1.458;2023-07-16T06:39:18;12.48;;;1.92;;
49722;SDS011;43484;43.608;1.458;2023-07-16T06:41:45;13.73;;;2.78;;
49722;SDS011;43484;43.608;1.458;2023-07-16T06:44:12;14.73;;;2.67;;
49722;SDS011;43484;43.608;1.458;2023-07-16T06:46:38;18.10;;;2.90;;
49722;SDS011;43484;43.608;1.458;2023-07-16T06:49:05;17.88;;;3.92;;
49722;SDS011;43484;43.608;1.458;2023-07-16T06:51:33;14.38;;;3.05;;
49722;SDS011;43484;43.608;1.458;2023-07-16T06:54:00;17.90;;;2.65;;
49722;SDS011;43484;43.608;1.458;2023-07-16T06:56:26;11.77;;;2.28;;
49722;SDS011;43484;43.608;1.458;2023-07-16T06:58:53;11.10;;;2.10;;
49722;SDS011;43484;43.608;1.458;2023-07-16T07:01:20;16.08;;;2.40;;
49722;SDS011;43484;43.608;1.458;2023-07-16T07:03:47;13.98;;;2.33;;
49722;SDS011;43484;43.608;1.458;2023-07-16T07:06:14;15.02;;;2.55;;
49722;SDS011;43484;43.608;1.458;2023-07-16T07:08:41;10.48;;;1.75;;
49722;SDS011;43484;43.608;1.458;2023-07-16T07:11:08;12.27;;;1.95;;
49722;SDS011;43484;43.608;1.458;2023-07-16T07:13:34;13.48;;;2.42;;
49722;SDS011;43484;43.608;1.458;2023-07-16T07:16:01;10.10;;;1.55;;
49722;SDS011;43484;43.608;1.458;2023-07-16T07:18:28;13.23;;;2.08;;
49722;SDS011;43484;43.608;1.458;2023-07-16T07:20:54;11.57;;;2.00;;
49722;SDS011;43484;43.608;1.458;2023-07-16T07:23:21;12.10;;;1.80;;
49722;SDS011;43484;43.608;1.458;2023-07-16T07:25:51;14.15;;;2.00;;
49722;SDS011;43484;43.608;1.458;2023-07-16T07:28:18;11.95;;;2.25;;
49722;SDS011;43484;43.608;1.458;2023-07-16T07:30:46;14.57;;;2.58;;
49722;SDS011;43484;43.608;1.458;2023-07-16T07:33:12;14.02;;;2.47;;
49722;SDS011;43484;43.608;1.458;2023-07-16T07:35:39;12.48;;;2.53;;
49722;SDS011;43484;43.608;1.458;2023-07-16T07:38:06;11.30;;;2.50;;
49722;SDS011;43484;43.608;1.458;2023-07-16T07:40:32;15.02;;;2.50;;
49722;SDS011;43484;43.608;1.458;2023-07-16T07:42:59;16.90;;;2.83;;
49722;SDS011;43484;43.608;1.458;2023-07-16T07:45:26;16.17;;;2.25;;
49722;SDS011;43484;43.608;1.458;2023-07-16T07:47:53;16.27;;;2.40;;
49722;SDS011;43484;43.608;1.458;2023-07-16T07:50:19;16.38;;;2.08;;
49722;SDS011;43484;43.608;1.458;2023-07-16T07:52:46;14.68;;;2.53;;
49722;SDS011;43484;43.608;1.458;2023-07-16T07:55:13;11.13;;;1.90;;
49722;SDS011;43484;43.608;1.458;2023-07-16T07:57:40;8.90;;;1.95;;
49722;SDS011;43484;43.608;1.458;2023-07-16T08:00:07;11.85;;;2.15;;
49722;SDS011;43484;43.608;1.458;2023-07-16T08:02:38;12.00;;;2.15;;
49722;SDS011;43484;43.608;1.458;2023-07-16T08:05:05;16.88;;;2.00;;
49722;SDS011;43484;43.608;1.458;2023-07-16T08:07:33;12.88;;;2.22;;
49722;SDS011;43484;43.608;1.458;2023-07-16T08:09:59;14.68;;;2.28;;
49722;SDS011;43484;43.608;1.458;2023-07-16T08:12:26;16.55;;;2.50;;
49722;SDS011;43484;43.608;1.458;2023-07-16T08:14:53;6.10;;;1.27;;
49722;SDS011;43484;43.608;1.458;2023-07-16T08:17:19;11.52;;;1.65;;
49722;SDS011;43484;43.608;1.458;2023-07-16T08:19:49;10.10;;;1.80;;
49722;SDS011;43484;43.608;1.458;2023-07-16T08:22:16;9.73;;;1.90;;
49722;SDS011;43484;43.608;1.458;2023-07-16T08:24:42;12.25;;;2.83;;
49722;SDS011;43484;43.608;1.458;2023-07-16T08:27:09;10.85;;;1.80;;
49722;SDS011;43484;43.608;1.458;2023-07-16T08:29:36;11.63;;;2.25;;
49722;SDS011;43484;43.608;1.458;2023-07-16T08:32:03;11.48;;;2.17;;
49722;SDS011;43484;43.608;1.458;2023-07-16T08:34:30;9.02;;;1.48;;
49722;SDS011;43484;43.608;1.458;2023-07-16T08:36:57;10.43;;;1.58;;
49722;SDS011;43484;43.608;1.458;2023-07-16T08:39:24;12.52;;;1.70;;
49722;SDS011;43484;43.608;1.458;2023-07-16T08:41:52;14.77;;;2.10;;
49722;SDS011;43484;43.608;1.458;2023-07-16T08:44:19;8.38;;;1.88;;
49722;SDS011;43484;43.608;1.458;2023-07-16T08:46:46;8.65;;;2.33;;
49722;SDS011;43484;43.608;1.458;2023-07-16T08:49:13;13.35;;;1.88;;
49722;SDS011;43484;43.608;1.458;2023-07-16T08:51:48;16.10;;;2.40;;
49722;SDS011;43484;43.608;1.458;2023-07-16T08:54:15;8.77;;;1.70;;
49722;SDS011;43484;43.608;1.458;2023-07-16T08:56:43;21.83;;;2.38;;
49722;SDS011;43484;43.608;1.458;2023-07-16T08:59:10;11.45;;;2.08;;
49722;SDS011;43484;43.608;1.458;2023-07-16T09:01:37;9.43;;;1.88;;
49722;SDS011;43484;43.608;1.458;2023-07-16T09:04:04;12.13;;;1.80;;
49722;SDS011;43484;43.608;1.458;2023-07-16T09:06:30;8.95;;;1.90;;
49722;SDS011;43484;43.608;1.458;2023-07-16T09:08:57;8.25;;;1.67;;
49722;SDS011;43484;43.608;1.458;2023-07-16T09:11:24;9.23;;;1.70;;
49722;SDS011;43484;43.608;1.458;2023-07-16T09:13:51;8.57;;;1.80;;
49722;SDS011;43484;43.608;1.458;2023-07-16T09:16:18;13.88;;;1.80;;
49722;SDS011;43484;43.608;1.458;2023-07-16T09:18:45;13.30;;;2.03;;
49722;SDS011;43484;43.608;1.458;2023-07-16T09:21:12;9.90;;;1.70;;
49722;SDS011;43484;43.608;1.458;2023-07-16T09:23:39;11.07;;;1.55;;
49722;SDS011;43484;43.608;1.458;2023-07-16T09:26:08;12.25;;;1.50;;
49722;SDS011;43484;43.608;1.458;2023-07-16T09:28:35;13.63;;;1.45;;
49722;SDS011;43484;43.608;1.458;2023-07-16T09:31:05;9.98;;;1.80;;
49722;SDS011;43484;43.608;1.458;2023-07-16T09:33:34;8.57;;;1.77;;
49722;SDS011;43484;43.608;1.458;2023-07-16T09:36:03;10.15;;;1.73;;
49722;SDS011;43484;43.608;1.458;2023-07-16T09:38:30;11.57;;;1.75;;
49722;SDS011;43484;43.608;1.458;2023-07-16T09:40:58;8.15;;;1.60;;
49722;SDS011;43484;43.608;1.458;2023-07-16T09:43:25;6.47;;;1.50;;
49722;SDS011;43484;43.608;1.458;2023-07-16T09:45:52;9.52;;;1.58;;
49722;SDS011;43484;43.608;1.458;2023-07-16T09:48:19;6.47;;;1.48;;
49722;SDS011;43484;43.608;1.458;2023-07-16T09:50:49;10.57;;;1.40;;
49722;SDS011;43484;43.608;1.458;2023-07-16T09:53:19;4.60;;;1.35;;
49722;SDS011;43484;43.608;1.458;2023-07-16T09:55:47;5.57;;;1.55;;
49722;SDS011;43484;43.608;1.458;2023-07-16T09:58:16;5.43;;;1.25;;
49722;SDS011;43484;43.608;1.458;2023-07-16T10:00:46;7.78;;;1.30;;
49722;SDS011;43484;43.608;1.458;2023-07-16T10:03:15;8.02;;;1.30;;
49722;SDS011;43484;43.608;1.458;2023-07-16T10:05:43;5.25;;;1.55;;
49722;SDS011;43484;43.608;1.458;2023-07-16T10:08:19;7.57;;;2.00;;
49722;SDS011;43484;43.608;1.458;2023-07-16T10:10:53;7.03;;;2.08;;
49722;SDS011;43484;43.608;1.458;2023-07-16T10:13:22;6.63;;;1.38;;
49722;SDS011;43484;43.608;1.458;2023-07-16T10:15:51;6.43;;;1.63;;
49722;SDS011;43484;43.608;1.458;2023-07-16T10:18:25;8.27;;;1.20;;
49722;SDS011;43484;43.608;1.458;2023-07-16T10:20:53;7.88;;;1.30;;
49722;SDS011;43484;43.608;1.458;2023-07-16T10:23:23;8.40;;;1.40;;
49722;SDS011;43484;43.608;1.458;2023-07-16T10:25:59;8.00;;;1.33;;
49722;SDS011;43484;43.608;1.458;2023-07-16T10:28:32;6.72;;;1.27;;
49722;SDS011;43484;43.608;1.458;2023-07-16T10:31:00;7.75;;;1.60;;
49722;SDS011;43484;43.608;1.458;2023-07-16T10:33:27;5.63;;;1.30;;
49722;SDS011;43484;43.608;1.458;2023-07-16T10:35:53;7.47;;;1.75;;
49722;SDS011;43484;43.608;1.458;2023-07-16T10:38:23;7.50;;;1.67;;
49722;SDS011;43484;43.608;1.458;2023-07-16T10:40:50;10.35;;;1.58;;
49722;SDS011;43484;43.608;1.458;2023-07-16T10:43:17;6.28;;;1.75;;
49722;SDS011;43484;43.608;1.458;2023-07-16T10:45:44;7.40;;;1.65;;
49722;SDS011;43484;43.608;1.458;2023-07-16T10:48:14;8.50;;;1.85;;
49722;SDS011;43484;43.608;1.458;2023-07-16T10:50:41;8.23;;;1.88;;
49722;SDS011;43484;43.608;1.458;2023-07-16T10:53:08;8.25;;;1.35;;
49722;SDS011;43484;43.608;1.458;2023-07-16T10:55:35;5.18;;;1.05;;
49722;SDS011;43484;43.608;1.458;2023-07-16T10:58:05;5.32;;;1.52;;
49722;SDS011;43484;43.608;1.458;2023-07-16T11:00:36;4.78;;;1.45;;
49722;SDS011;43484;43.608;1.458;2023-07-16T11:03:04;6.38;;;1.65;;
49722;SDS011;43484;43.608;1.458;2023-07-16T11:05:31;6.53;;;1.65;;
49722;SDS011;43484;43.608;1.458;2023-07-16T11:07:58;3.90;;;0.80;;
49722;SDS011;43484;43.608;1.458;2023-07-16T11:10:24;3.33;;;1.17;;
49722;SDS011;43484;43.608;1.458;2023-07-16T11:12:55;7.00;;;1.75;;
49722;SDS011;43484;43.608;1.458;2023-07-16T11:15:40;7.20;;;1.42;;
49722;SDS011;43484;43.608;1.458;2023-07-16T11:18:07;6.07;;;1.70;;
49722;SDS011;43484;43.608;1.458;2023-07-16T11:20:34;6.85;;;1.60;;
49722;SDS011;43484;43.608;1.458;2023-07-16T11:23:00;3.67;;;1.10;;
49722;SDS011;43484;43.608;1.458;2023-07-16T11:25:28;5.65;;;1.10;;
49722;SDS011;43484;43.608;1.458;2023-07-16T11:27:55;4.38;;;1.17;;
49722;SDS011;43484;43.608;1.458;2023-07-16T11:30:23;6.32;;;1.50;;
49722;SDS011;43484;43.608;1.458;2023-07-16T11:32:51;5.03;;;1.13;;
49722;SDS011;43484;43.608;1.458;2023-07-16T11:35:18;6.88;;;1.90;;
49722;SDS011;43484;43.608;1.458;2023-07-16T11:37:46;2.80;;;1.17;;
49722;SDS011;43484;43.608;1.458;2023-07-16T11:40:17;6.80;;;1.50;;
49722;SDS011;43484;43.608;1.458;2023-07-16T11:42:45;2.97;;;1.17;;
49722;SDS011;43484;43.608;1.458;2023-07-16T11:45:22;6.63;;;1.02;;
49722;SDS011;43484;43.608;1.458;2023-07-16T11:47:52;3.80;;;0.90;;
49722;SDS011;43484;43.608;1.458;2023-07-16T11:50:19;10.18;;;1.33;;
49722;SDS011;43484;43.608;1.458;2023-07-16T11:52:52;7.53;;;1.52;;
49722;SDS011;43484;43.608;1.458;2023-07-16T11:55:20;4.60;;;1.63;;
49722;SDS011;43484;43.608;1.458;2023-07-16T11:57:46;5.68;;;1.23;;
49722;SDS011;43484;43.608;1.458;2023-07-16T12:00:14;4.13;;;1.30;;
49722;SDS011;43484;43.608;1.458;2023-07-16T12:02:41;7.03;;;1.58;;
49722;SDS011;43484;43.608;1.458;2023-07-16T12:05:07;5.75;;;1.30;;
49722;SDS011;43484;43.608;1.458;2023-07-16T12:07:37;3.35;;;1.00;;
49722;SDS011;43484;43.608;1.458;2023-07-16T12:10:05;6.82;;;1.52;;
49722;SDS011;43484;43.608;1.458;2023-07-16T12:12:33;5.28;;;1.50;;
49722;SDS011;43484;43.608;1.458;2023-07-16T12:15:05;6.90;;;1.48;;
49722;SDS011;43484;43.608;1.458;2023-07-16T12:17:32;6.60;;;1.77;;
49722;SDS011;43484;43.608;1.458;2023-07-16T12:20:00;6.97;;;1.40;;
49722;SDS011;43484;43.608;1.458;2023-07-16T12:22:27;7.57;;;1.75;;
49722;SDS011;43484;43.608;1.458;2023-07-16T12:24:54;3.78;;;1.30;;
49722;SDS011;43484;43.608;1.458;2023-07-16T12:27:20;5.50;;;1.38;;
49722;SDS011;43484;43.608;1.458;2023-07-16T12:29:48;5.75;;;1.27;;
49722;SDS011;43484;43.608;1.458;2023-07-16T12:32:14;4.32;;;1.17;;
49722;SDS011;43484;43.608;1.458;2023-07-16T12:34:42;4.20;;;1.10;;
49722;SDS011;43484;43.608;1.458;2023-07-16T12:37:09;7.82;;;1.77;;
49722;SDS011;43484;43.608;1.458;2023-07-16T12:39:36;6.25;;;1.52;;
49722;SDS011;43484;43.608;1.458;2023-07-16T12:42:03;5.75;;;1.17;;
49722;SDS011;43484;43.608;1.458;2023-07-16T12:44:30;5.30;;;1.50;;
49722;SDS011;43484;43.608;1.458;2023-07-16T12:46:56;11.02;;;1.75;;
49722;SDS011;43484;43.608;1.458;2023-07-16T12:49:23;5.43;;;1.48;;
49722;SDS011;43484;43.608;1.458;2023-07-16T12:51:50;4.68;;;1.17;;
49722;SDS011;43484;43.608;1.458;2023-07-16T12:54:17;4.93;;;1.52;;
49722;SDS011;43484;43.608;1.458;2023-07-16T12:56:43;5.80;;;1.70;;
49722;SDS011;43484;43.608;1.458;2023-07-16T12:59:10;4.05;;;1.10;;
49722;SDS011;43484;43.608;1.458;2023-07-16T13:01:37;10.77;;;1.25;;
49722;SDS011;43484;43.608;1.458;2023-07-16T13:04:04;7.47;;;1.75;;
49722;SDS011;43484;43.608;1.458;2023-07-16T13:06:30;4.68;;;1.30;;
49722;SDS011;43484;43.608;1.458;2023-07-16T13:08:57;4.85;;;1.52;;
49722;SDS011;43484;43.608;1.458;2023-07-16T13:11:24;6.78;;;1.58;;
49722;SDS011;43484;43.608;1.458;2023-07-16T13:13:51;6.35;;;1.13;;
49722;SDS011;43484;43.608;1.458;2023-07-16T13:16:18;9.18;;;1.50;;
49722;SDS011;43484;43.608;1.458;2023-07-16T13:18:45;5.55;;;1.27;;
49722;SDS011;43484;43.608;1.458;2023-07-16T13:21:12;4.78;;;1.35;;
49722;SDS011;43484;43.608;1.458;2023-07-16T13:23:39;2.10;;;1.00;;
49722;SDS011;43484;43.608;1.458;2023-07-16T13:26:05;4.78;;;1.40;;
49722;SDS011;43484;43.608;1.458;2023-07-16T13:28:32;7.55;;;1.52;;
49722;SDS011;43484;43.608;1.458;2023-07-16T13:30:59;3.15;;;1.48;;
49722;SDS011;43484;43.608;1.458;2023-07-16T13:33:26;3.08;;;1.30;;
49722;SDS011;43484;43.608;1.458;2023-07-16T13:35:52;5.53;;;1.40;;
49722;SDS011;43484;43.608;1.458;2023-07-16T13:38:19;7.65;;;1.40;;
49722;SDS011;43484;43.608;1.458;2023-07-16T13:40:46;7.57;;;1.67;;
49722;SDS011;43484;43.608;1.458;2023-07-16T13:43:12;4.10;;;1.38;;
49722;SDS011;43484;43.608;1.458;2023-07-16T13:45:39;8.48;;;1.20;;
49722;SDS011;43484;43.608;1.458;2023-07-16T13:48:06;5.43;;;1.45;;
49722;SDS011;43484;43.608;1.458;2023-07-16T13:50:33;8.35;;;1.20;;
49722;SDS011;43484;43.608;1.458;2023-07-16T13:52:59;4.30;;;1.30;;
49722;SDS011;43484;43.608;1.458;2023-07-16T13:55:27;7.72;;;1.52;;
49722;SDS011;43484;43.608;1.458;2023-07-16T13:57:55;7.18;;;1.45;;
49722;SDS011;43484;43.608;1.458;2023-07-16T14:00:22;5.63;;;1.52;;
49722;SDS011;43484;43.608;1.458;2023-07-16T14:02:49;4.57;;;1.30;;
49722;SDS011;43484;43.608;1.458;2023-07-16T14:05:16;5.72;;;1.27;;
49722;SDS011;43484;43.608;1.458;2023-07-16T14:07:43;4.50;;;1.27;;
49722;SDS011;43484;43.608;1.458;2023-07-16T14:10:09;13.15;;;1.90;;
49722;SDS011;43484;43.608;1.458;2023-07-16T14:12:36;4.45;;;1.40;;
49722;SDS011;43484;43.608;1.458;2023-07-16T14:15:03;8.45;;;1.77;;
49722;SDS011;43484;43.608;1.458;2023-07-16T14:17:30;9.65;;;1.42;;
49722;SDS011;43484;43.608;1.458;2023-07-16T14:19:57;8.80;;;1.40;;
49722;SDS011;43484;43.608;1.458;2023-07-16T14:22:24;6.32;;;1.63;;
49722;SDS011;43484;43.608;1.458;2023-07-16T14:24:54;5.22;;;1.50;;
49722;SDS011;43484;43.608;1.458;2023-07-16T14:27:20;5.00;;;1.30;;
49722;SDS011;43484;43.608;1.458;2023-07-16T14:29:47;4.57;;;1.20;;
49722;SDS011;43484;43.608;1.458;2023-07-16T14:32:30;9.13;;;1.75;;
49722;SDS011;43484;43.608;1.458;2023-07-16T14:34:58;4.93;;;1.55;;
49722;SDS011;43484;43.608;1.458;2023-07-16T14:37:26;4.72;;;1.35;;
49722;SDS011;43484;43.608;1.458;2023-07-16T14:39:53;3.85;;;1.35;;
49722;SDS011;43484;43.608;1.458;2023-07-16T14:42:19;9.00;;;1.60;;
49722;SDS011;43484;43.608;1.458;2023-07-16T14:44:46;9.70;;;1.88;;
49722;SDS011;43484;43.608;1.458;2023-07-16T14:47:13;6.75;;;1.60;;
49722;SDS011;43484;43.608;1.458;2023-07-16T14:49:40;6.15;;;1.50;;